Latest Weather Observations for Swan Hill

IDN60801

Issued at 11:02 am EDT Thursday 21 November 2019 (issued every 10 minutes, with the page automatically refreshed every 10 minutes)

About weather observations | Map of weather stations | Latest weather observations for NSW | Other Formats
Station Details ID: 077094 Name: SWAN HILL AERODROME Lat: -35.38 Lon: 143.54 Height: 71.0 m
Data from the previous 72 hours. | See also: Recent months at Swan Hill
Date/Time
EDT
Temp
°C
App
Temp
°C
Dew
Point
°C
Rel
Hum
%
Delta-T
°C
Wind Press
QNH
hPa
Press
MSL
hPa
Rain since
9am
mm
Dir  Spd
km/h
Gust
km/h
Spd
kts
Gust
kts
21/11:00am 39.6 28.1 -2.6 7 20.7 N 48 63 26 34 1003.6 1003.3 0.0
21/10:31am 38.5 27.9 -1.6 8 19.8 N 44 65 24 35 1003.7 1003.4 0.0
21/10:30am 38.6 28.0 -1.5 8 19.8 N 44 59 24 32 1003.8 1003.5 0.0
21/10:01am 37.5 27.0 -2.3 8 19.3 N 43 65 23 35 1003.9 1003.6 0.0
21/10:00am 37.4 26.9 -2.4 8 19.3 N 43 59 23 32 1003.9 1003.6 0.0
21/09:33am 37.3 26.3 -2.4 8 19.2 N 46 67 25 36 1003.9 1003.6 0.0
21/09:30am 37.4 26.7 -2.4 8 19.3 N 44 61 24 33 1003.9 1003.6 0.0
21/09:00am 35.6 25.0 -2.1 9 18.2 N 44 63 24 34 1004.0 1003.7 0.0
21/08:35am 34.1 25.2 -1.8 10 17.2 NNE 35 56 19 30 1004.3 1004.0 0.0
21/08:30am 33.8 24.9 -2.0 10 17.0 NNE 35 46 19 25 1004.4 1004.1 0.0
21/08:00am 32.3 23.8 -1.9 11 16.2 NNE 33 48 18 26 1004.4 1004.1 0.0
21/07:30am 31.3 22.3 -2.6 11 15.7 NNE 35 54 19 29 1004.5 1004.2 0.0
21/07:00am 30.5 21.6 -2.1 12 15.2 NNE 35 54 19 29 1004.5 1004.2 0.0
21/06:35am 30.0 22.1 -1.4 13 14.7 NNE 30 50 16 27 1004.1 1003.8 0.0
21/06:30am 29.5 21.9 -1.8 13 14.5 NNE 28 41 15 22 1004.2 1003.9 0.0
21/06:00am 29.4 21.5 -1.9 13 14.5 NNE 30 44 16 24 1004.1 1003.8 0.0
21/05:43am 29.3 21.1 -0.9 14 14.2 NNE 32 50 17 27 1004.1 1003.8 0.0
21/05:30am 28.9 20.7 -1.2 14 14.0 NNE 32 44 17 24 1004.0 1003.7 0.0
21/05:00am 28.5 21.9 -0.6 15 13.7 N 24 33 13 18 1004.0 1003.7 0.0
21/04:30am 29.1 22.4 -1.1 14 14.1 NNE 24 37 13 20 1004.1 1003.8 0.0
21/04:00am 29.8 22.0 -0.5 14 14.4 NNE 30 43 16 23 1004.1 1003.8 0.0
21/03:30am 30.1 22.4 -0.3 14 14.5 NNE 30 39 16 21 1004.1 1003.8 0.0
21/03:11am 30.6 22.9 0.1 14 14.7 NNE 30 48 16 26 1004.3 1004.0 0.0
21/03:00am 30.1 22.4 -0.3 14 14.5 NNE 30 39 16 21 1004.4 1004.1 0.0
21/02:30am 29.4 22.2 1.0 16 13.8 NNE 28 39 15 21 1004.6 1004.3 0.0
21/02:00am 29.2 22.2 1.7 17 13.5 NNE 28 39 15 21 1004.8 1004.5 0.0
21/01:30am 29.3 22.3 1.7 17 13.5 NNE 28 39 15 21 1005.2 1005.0 0.0
21/01:00am 29.6 23.0 2.0 17 13.7 NNE 26 35 14 19 1005.4 1005.2 0.0
21/12:30am 30.1 22.6 1.5 16 14.1 NNE 30 44 16 24 1005.5 1005.3 0.0
21/12:00am 30.2 23.3 2.5 17 13.9 NNE 28 41 15 22 1005.7 1005.5 0.0
 
Date/Time
EDT
Temp
°C
App
Temp
°C
Dew
Point
°C
Rel
Hum
%
Delta-T
°C
Wind Press
QNH
hPa
Press
MSL
hPa
Rain since
9am
mm
Dir  Spd
km/h
Gust
km/h
Spd
kts
Gust
kts
20/11:30pm 29.6 23.1 2.8 18 13.4 NE 26 33 14 18 1005.7 1005.5 0.0
20/11:00pm 29.3 23.3 3.3 19 13.2 NE 24 32 13 17 1005.8 1005.6 0.0
20/10:30pm 29.0 23.3 3.1 19 13.0 NE 22 28 12 15 1005.9 1005.7 0.0
20/10:00pm 29.6 23.5 2.8 18 13.5 NE 24 30 13 16 1005.9 1005.7 0.0
20/09:30pm 30.3 24.9 2.5 17 13.9 NE 20 26 11 14 1005.8 1005.6 0.0
20/09:00pm 30.9 25.6 3.0 17 14.2 NE 20 24 11 13 1005.8 1005.6 0.0
20/08:30pm 32.1 26.7 1.3 14 15.3 ENE 19 20 10 11 1005.8 1005.6 0.0
20/08:00pm 33.4 28.0 1.3 13 16.1 NE 19 22 10 12 1005.9 1005.7 0.0
20/07:30pm 34.7 29.6 3.3 14 16.4 NE 19 24 10 13 1005.9 1005.7 0.0
20/07:00pm 35.0 30.4 5.4 16 16.0 NE 19 26 10 14 1005.8 1005.6 0.0
20/06:30pm 36.0 30.8 3.3 13 17.2 NE 20 28 11 15 1005.9 1005.7 0.0
20/06:00pm 39.3 34.3 -1.0 8 20.2 NNE 15 20 8 11 1006.1 1005.9 0.0
20/05:30pm 38.4 33.3 -1.6 8 19.7 NE 15 24 8 13 1006.3 1006.1 0.0
20/05:00pm 39.3 33.3 -2.8 7 20.6 N 19 33 10 18 1006.7 1006.5 0.0
20/04:30pm 38.7 33.3 -1.4 8 19.9 NNE 17 28 9 15 1007.0 1006.8 0.0
20/04:00pm 39.2 34.6 -1.1 8 20.2 NNW 13 24 7 13 1007.5 1007.3 0.0
20/03:30pm 38.2 33.4 2.6 11 18.7 NE 17 24 9 13 1008.0 1007.8 0.0
20/03:00pm 38.0 33.2 2.5 11 18.6 NNE 17 30 9 16 1008.6 1008.4 0.0
20/02:30pm 37.1 31.4 -1.0 9 18.8 NNE 19 32 10 17 1009.2 1009.0 0.0
20/02:00pm 36.0 31.1 -0.4 10 18.0 NE 15 20 8 11 1009.7 1009.5 0.0
20/01:30pm 35.0 30.9 2.5 13 16.8 NE 13 24 7 13 1010.3 1010.1 0.0
20/01:00pm 34.9 31.0 3.5 14 16.5 NE 13 22 7 12 1010.7 1010.5 0.0
20/12:30pm 33.3 28.3 1.2 13 16.0 NNE 17 24 9 13 1011.2 1011.0 0.0
20/12:00pm 32.9 28.5 4.6 17 14.9 NE 17 28 9 15 1011.3 1011.1 0.0
20/11:30am 31.2 26.0 3.3 17 14.2 NNE 20 26 11 14 1011.6 1011.4 0.0
20/11:00am 29.1 24.2 3.9 20 12.8 NE 19 24 10 13 1011.8 1011.6 0.0
20/10:30am 27.9 23.9 6.6 26 11.3 NE 17 22 9 12 1012.1 1011.9 0.0
20/10:00am 26.1 22.0 6.2 28 10.4 NE 17 24 9 13 1012.4 1012.2 0.0
20/09:30am 23.9 19.4 6.2 32 9.1 NE 19 28 10 15 1012.4 1012.2 0.0
20/09:00am 22.3 18.4 7.3 38 7.8 NE 17 22 9 12 1012.3 1012.1 0.0
20/08:30am 19.8 16.0 7.5 45 6.3 ENE 17 22 9 12 1012.3 1012.1 0.0
20/08:00am 18.5 15.6 8.2 51 5.3 ENE 13 17 7 9 1012.2 1012.0 0.0
20/07:30am 16.6 13.8 7.0 53 4.8 ESE 11 15 6 8 1012.0 1011.8 0.0
20/07:00am 14.8 12.8 6.9 59 3.9 ESE 7 9 4 5 1011.9 1011.7 0.0
20/06:30am 13.5 11.0 6.6 63 3.3 ESE 9 13 5 7 1011.8 1011.6 0.0
20/06:00am 13.9 10.8 7.2 64 3.3 ESE 13 15 7 8 1011.6 1011.4 0.0
20/05:30am 13.2 10.8 6.8 65 3.1 ESE 9 11 5 6 1011.8 1011.6 0.0
20/05:00am 13.6 11.1 6.5 62 3.4 SE 9 11 5 6 1011.9 1011.7 0.0
20/04:30am 14.6 12.1 6.7 59 3.8 SE 9 11 5 6 1011.4 1011.2 0.0
20/04:00am 15.0 12.5 6.6 57 4.1 SE 9 13 5 7 1011.3 1011.1 0.0
20/03:30am 16.1 13.2 6.3 52 4.8 SE 11 17 6 9 1011.3 1011.1 0.0
20/03:00am 17.0 13.7 6.5 50 5.2 ESE 13 17 7 9 1011.4 1011.2 0.0
20/02:30am 17.3 14.2 5.6 46 5.7 SE 11 15 6 8 1012.2 1012.0 0.0
20/02:00am 18.5 15.1 5.7 43 6.3 ESE 13 19 7 10 1012.3 1012.1 0.0
20/01:30am 19.0 15.3 6.2 43 6.4 ESE 15 20 8 11 1012.4 1012.2 0.0
20/01:00am 17.5 13.5 3.0 38 6.7 SE 13 17 7 9 1013.0 1012.8 0.0
20/12:30am 18.5 14.5 2.8 35 7.3 SSE 13 17 7 9 1013.5 1013.3 0.0
20/12:00am 18.3 15.0 2.2 34 7.4 SSE 9 13 5 7 1013.3 1013.1 0.0
 
Date/Time
EDT
Temp
°C
App
Temp
°C
Dew
Point
°C
Rel
Hum
%
Delta-T
°C
Wind Press
QNH
hPa
Press
MSL
hPa
Rain since
9am
mm
Dir  Spd
km/h
Gust
km/h
Spd
kts
Gust
kts
19/11:30pm 19.2 15.8 1.7 31 8.0 S 9 11 5 6 1013.2 1013.0 0.0
19/11:00pm 20.0 16.5 1.4 29 8.5 S 9 13 5 7 1013.2 1013.0 0.0
19/10:30pm 20.6 17.1 1.5 28 8.8 S 9 11 5 6 1012.8 1012.6 0.0
19/10:00pm 22.0 18.9 1.1 25 9.6 S 7 11 4 6 1012.5 1012.3 0.0
19/09:30pm 23.6 20.0 0.7 22 10.6 S 9 13 5 7 1012.0 1011.8 0.0
19/09:00pm 24.7 21.1 0.3 20 11.3 S 9 15 5 8 1011.6 1011.4 0.0
19/08:30pm 26.0 22.4 0.6 19 11.9 SSW 9 13 5 7 1011.4 1011.2 0.0
19/08:00pm 28.2 23.7 0.0 16 13.3 SSW 13 19 7 10 1011.1 1010.9 0.0
19/07:30pm 29.9 24.8 0.5 15 14.2 SSW 17 24 9 13 1010.8 1010.6 0.0
19/07:00pm 31.2 25.5 0.6 14 14.9 SW 20 30 11 16 1010.5 1010.3 0.0
19/06:30pm 31.3 25.6 0.6 14 15.0 WSW 20 28 11 15 1010.2 1010.0 0.0
19/06:00pm 32.4 25.4 -0.6 12 15.9 SW 26 39 14 21 1010.0 1009.8 0.0
19/05:30pm 33.0 25.8 0.9 13 15.9 SW 28 39 15 21 1010.0 1009.8 0.0
19/05:00pm 32.9 26.1 0.9 13 15.9 SW 26 41 14 22 1010.1 1009.9 0.0
19/04:30pm 33.0 26.2 0.9 13 15.9 SW 26 44 14 24 1009.9 1009.7 0.0
19/04:00pm 33.2 26.1 1.1 13 16.0 WSW 28 43 15 23 1009.8 1009.6 0.0
19/03:30pm 33.6 26.3 0.3 12 16.4 WSW 28 43 15 23 1010.1 1009.9 0.0
19/03:00pm 33.0 26.8 -0.2 12 16.2 SW 22 32 12 17 1010.3 1010.1 0.0
19/02:30pm 33.1 24.9 -1.3 11 16.5 W 32 48 17 26 1010.5 1010.3 0.0
19/02:22pm 32.4 25.6 -1.8 11 16.2 WSW 24 48 13 26 1010.7 1010.5 0.0
19/02:00pm 32.3 25.1 -1.9 11 16.1 WSW 26 41 14 22 1011.0 1010.8 0.0
19/01:30pm 31.3 24.5 -1.5 12 15.4 WSW 24 41 13 22 1011.2 1011.0 0.0
19/01:00pm 31.0 24.2 -1.7 12 15.3 SW 24 33 13 18 1011.3 1011.1 0.0
19/12:30pm 30.3 23.5 -2.2 12 15.0 WSW 24 33 13 18 1011.4 1011.2 0.0
19/12:00pm 29.1 23.0 -2.1 13 14.3 WSW 20 30 11 16 1011.6 1011.4 0.0
19/11:30am 28.7 22.9 -1.4 14 13.9 SW 19 28 10 15 1011.8 1011.6 0.0
19/11:00am 28.5 22.7 -1.6 14 13.9 WSW 19 30 10 16 1011.9 1011.7 0.0
19/10:30am 27.4 21.9 -2.4 14 13.4 SW 17 26 9 14 1011.8 1011.6 0.0
19/10:00am 26.9 21.4 -1.9 15 13.0 SW 17 28 9 15 1011.9 1011.7 0.0
19/09:30am 26.0 20.2 -1.7 16 12.5 WSW 19 24 10 13 1011.9 1011.7 0.0
19/09:00am 25.9 20.5 -1.0 17 12.3 SW 17 32 9 17 1011.8 1011.6 0.0
19/08:30am 24.3 21.0 -0.1 20 11.2 WNW 7 13 4 7 1011.3 1011.1 0.0
19/08:00am 20.9 17.8 0.2 25 9.3 NW 6 7 3 4 1011.3 1011.1 0.0
19/07:30am 17.5 13.8 -0.2 30 7.6 NW 9 13 5 7 1011.2 1011.0 0.0
19/07:00am 13.8 10.1 0.1 39 5.8 NW 9 9 5 5 1010.9 1010.7 0.0
19/06:30am 11.3 9.3 0.1 46 4.6 CALM 0 0 0 0 1010.6 1010.4 0.0
19/06:00am 11.8 9.8 0.0 44 4.9 CALM 0 0 0 0 1010.3 1010.1 0.0
19/05:30am 12.0 10.1 0.5 45 4.8 CALM 0 0 0 0 1010.2 1010.0 0.0
19/05:00am 12.7 10.3 -0.2 41 5.3 NW 2 6 1 3 1010.3 1010.1 0.0
19/04:30am 13.5 10.1 -0.9 37 5.9 NW 7 9 4 5 1010.3 1010.1 0.0
19/04:00am 13.7 10.5 -0.7 37 5.9 NW 6 7 3 4 1010.2 1010.0 0.0
19/03:30am 13.8 10.4 -0.3 38 5.9 NW 7 9 4 5 1010.3 1010.1 0.0
19/03:00am 16.0 12.3 -0.2 33 6.9 NW 9 11 5 6 1010.3 1010.1 0.0
19/02:30am 15.8 12.5 0.0 34 6.7 NW 7 9 4 5 1010.5 1010.3 0.0
19/02:00am 15.9 12.2 0.1 34 6.8 NW 9 11 5 6 1010.4 1010.2 0.0
19/01:30am 16.3 12.5 -0.4 32 7.1 NW 9 11 5 6 1010.7 1010.5 0.0
19/01:00am 17.1 13.5 0.7 33 7.2 W 9 9 5 5 1011.0 1010.8 0.0
19/12:30am 18.2 14.1 -0.1 29 8.0 WNW 11 13 6 7 1011.2 1011.0 0.0
19/12:00am 20.6 15.7 -0.7 24 9.4 W 15 19 8 10 1011.4 1011.2 0.0
 
Date/Time
EDT
Temp
°C
App
Temp
°C
Dew
Point
°C
Rel
Hum
%
Delta-T
°C
Wind Press
QNH
hPa
Press
MSL
hPa
Rain since
9am
mm
Dir  Spd
km/h
Gust
km/h
Spd
kts
Gust
kts
18/11:30pm 18.1 14.1 0.7 31 7.7 NNW 11 19 6 10 1011.4 1011.2 0.0
18/11:00pm 18.5 14.1 0.6 30 7.9 N 13 15 7 8 1011.4 1011.2 0.0
18/10:30pm 18.9 14.5 0.5 29 8.2 N 13 15 7 8 1011.6 1011.4 0.0
18/10:00pm 20.8 16.3 -0.5 24 9.4 N 13 15 7 8 1011.7 1011.5 0.0
18/09:30pm 20.6 16.4 -1.2 23 9.5 W 11 13 6 7 1011.7 1011.5 0.0
18/09:00pm 20.9 16.9 -2.2 21 9.9 W 9 13 5 7 1011.6 1011.4 0.0
18/08:30pm 24.1 19.7 -2.4 17 11.6 W 11 13 6 7 1011.8 1011.6 0.0
18/08:00pm 27.7 22.3 -4.3 12 14.0 W 15 17 8 9 1011.8 1011.6 0.0
18/07:30pm 30.3 23.9 -4.7 10 15.5 W 20 26 11 14 1011.7 1011.5 0.0
18/07:00pm 31.0 24.3 -4.1 10 15.8 W 22 33 12 18 1011.6 1011.4 0.0
18/06:30pm 31.1 24.4 -4.1 10 15.8 W 22 32 12 17 1011.6 1011.4 0.0
18/06:00pm 31.3 23.9 -3.9 10 15.9 WNW 26 37 14 20 1011.8 1011.6 0.0
18/05:30pm 31.4 24.0 -3.8 10 16.0 W 26 35 14 19 1012.1 1011.9 0.0
18/05:00pm 31.3 23.9 -3.9 10 15.9 WNW 26 43 14 23 1012.5 1012.3 0.0
18/04:30pm 31.1 23.8 -2.8 11 15.6 WNW 26 37 14 20 1012.7 1012.5 0.0
18/04:00pm 30.5 23.1 -3.3 11 15.3 W 26 37 14 20 1013.1 1012.9 0.0
18/03:30pm 31.2 23.8 -4.0 10 15.9 W 26 37 14 20 1013.6 1013.4 0.0
18/03:00pm 29.3 23.0 -0.9 14 14.2 WNW 22 39 12 21 1014.1 1013.9 0.0
18/02:30pm 30.4 24.8 -0.1 14 14.6 WNW 19 33 10 18 1014.6 1014.4 0.0
18/02:00pm 28.4 23.2 0.2 16 13.4 WNW 17 24 9 13 1015.0 1014.8 0.0
18/01:30pm 28.5 23.3 0.3 16 13.4 WNW 17 33 9 18 1015.6 1015.4 0.0
18/01:00pm 26.8 21.8 1.3 19 12.2 WNW 17 30 9 16 1016.2 1016.0 0.0
18/12:30pm 25.9 20.9 1.2 20 11.7 W 17 24 9 13 1016.7 1016.5 0.0
18/12:00pm 25.8 21.7 2.5 22 11.3 W 13 28 7 15 1017.2 1017.1 0.0
18/11:30am 24.2 19.8 2.9 25 10.3 WNW 15 28 8 15 1017.7 1017.6 0.0

Other formats

Comma delimited format used in spreadsheet applications
http://www.bom.gov.au/fwo/IDN60801/IDN60801.94843.axf

JavaScript Object Notation format (JSON) in row-major order
http://www.bom.gov.au/fwo/IDN60801/IDN60801.94843.json

Data quality

Most of these data are generated automatically and are frequently updated. Quality checks on data are not normally performed. It is possible for incorrect values to appear. Refer to information at About Latest Weather Observations and please check the disclaimer before using these data.